Time;durP1;ratioP1;P1;durP2;ratioP2;P2;SDS_P1;SDS_P2;PMS_P1;PMS_P2;Temp;Humidity;BMP_temperature;BMP_pressure;BME280_temperature;BME280_humidity;BME280_pressure;Samples;Min_cycle;Max_cycle;Signal;HPM_P1;HPM_P2
2023/10/23 00:01:44;;;;;;;10.10;3.83;;;;;;;;;;5099757;27;20197;-77
2023/10/23 00:04:12;;;;;;;7.73;4.17;;;;;;;;;;5098900;28;20197;-77
2023/10/23 00:06:39;;;;;;;7.83;4.37;;;;;;;;;;5078485;28;20206;-76
2023/10/23 00:09:07;;;;;;;6.37;4.03;;;;;;;;;;5097258;28;20593;-76
2023/10/23 00:11:34;;;;;;;6.20;4.60;;;;;;;;;;5106371;27;20576;-77
2023/10/23 00:14:02;;;;;;;6.63;4.20;;;;;;;;;;5091739;28;20200;-76
2023/10/23 00:16:29;;;;;;;5.57;3.70;;;;;;;;;;5099936;28;20321;-77
2023/10/23 00:18:56;;;;;;;6.23;3.70;;;;;;;;;;5096748;28;20583;-75
2023/10/23 00:21:24;;;;;;;7.03;4.00;;;;;;;;;;5098137;27;20264;-74
2023/10/23 00:23:51;;;;;;;8.23;3.97;;;;;;;;;;5077219;28;20234;-76
2023/10/23 00:26:18;;;;;;;4.80;4.07;;;;;;;;;;5091361;28;20682;-75
2023/10/23 00:28:45;;;;;;;7.50;4.20;;;;;;;;;;5099894;28;20602;-76
2023/10/23 00:31:13;;;;;;;11.20;4.90;;;;;;;;;;5102508;27;20225;-76
2023/10/23 00:33:40;;;;;;;9.53;3.83;;;;;;;;;;5099064;28;20219;-75
2023/10/23 00:36:08;;;;;;;6.30;3.70;;;;;;;;;;5092462;27;20220;-77
2023/10/23 00:38:35;;;;;;;5.60;3.50;;;;;;;;;;5099821;28;20264;-76
2023/10/23 00:41:02;;;;;;;5.80;3.77;;;;;;;;;;5098568;28;20223;-76
2023/10/23 00:43:29;;;;;;;7.47;3.83;;;;;;;;;;5095477;28;20552;-76
2023/10/23 00:45:58;;;;;;;6.47;3.57;;;;;;;;;;5100787;28;20680;-76
2023/10/23 00:48:26;;;;;;;5.50;3.30;;;;;;;;;;5090705;28;20204;-75
2023/10/23 00:50:58;;;;;;;5.57;3.33;;;;;;;;;;5100166;28;20228;-76
2023/10/23 00:53:26;;;;;;;5.37;3.30;;;;;;;;;;5099763;28;20204;-76
2023/10/23 00:55:54;;;;;;;4.53;2.90;;;;;;;;;;5103947;27;20228;-75
2023/10/23 00:58:25;;;;;;;5.23;3.07;;;;;;;;;;5094125;28;20208;-77
2023/10/23 01:00:54;;;;;;;5.20;3.80;;;;;;;;;;5100092;28;20215;-75
2023/10/23 01:03:22;;;;;;;5.67;4.03;;;;;;;;;;5090085;28;20227;-75
2023/10/23 01:05:49;;;;;;;7.00;4.20;;;;;;;;;;5089845;28;20588;-77
2023/10/23 01:08:16;;;;;;;6.43;4.70;;;;;;;;;;5073064;28;20222;-77
2023/10/23 01:10:44;;;;;;;6.23;4.63;;;;;;;;;;5096431;28;20281;-77
2023/10/23 01:13:12;;;;;;;5.37;3.80;;;;;;;;;;5091824;28;20254;-76
2023/10/23 01:15:39;;;;;;;5.73;3.77;;;;;;;;;;5090926;28;20224;-77
2023/10/23 01:18:07;;;;;;;8.03;3.83;;;;;;;;;;5094442;28;20199;-76
2023/10/23 01:20:34;;;;;;;6.97;4.03;;;;;;;;;;5095584;27;20757;-76
2023/10/23 01:23:02;;;;;;;7.00;4.53;;;;;;;;;;5095879;27;20213;-76
2023/10/23 01:25:30;;;;;;;6.87;4.50;;;;;;;;;;5098847;28;20278;-76
2023/10/23 01:27:57;;;;;;;6.73;4.37;;;;;;;;;;5097174;28;20205;-76
2023/10/23 01:30:24;;;;;;;7.10;4.30;;;;;;;;;;5100002;28;20265;-76
2023/10/23 01:32:52;;;;;;;7.03;3.60;;;;;;;;;;5097328;27;20216;-76
2023/10/23 01:35:19;;;;;;;4.43;3.20;;;;;;;;;;5098652;28;20225;-77
2023/10/23 01:37:47;;;;;;;4.43;3.07;;;;;;;;;;5095110;27;20200;-77
2023/10/23 01:40:15;;;;;;;4.70;3.73;;;;;;;;;;5095429;28;20599;-77
2023/10/23 01:42:43;;;;;;;4.60;3.53;;;;;;;;;;5099739;27;20196;-76
2023/10/23 01:45:11;;;;;;;5.00;3.33;;;;;;;;;;5094281;28;20203;-77
2023/10/23 01:47:38;;;;;;;5.47;3.50;;;;;;;;;;5097013;27;20211;-77
2023/10/23 01:50:06;;;;;;;5.63;3.47;;;;;;;;;;5093835;27;20306;-78
2023/10/23 01:52:33;;;;;;;7.70;4.30;;;;;;;;;;5094947;28;20252;-76
2023/10/23 01:55:00;;;;;;;4.87;3.80;;;;;;;;;;5091964;27;20332;-77
2023/10/23 01:57:28;;;;;;;8.07;4.40;;;;;;;;;;5095528;27;20200;-77
2023/10/23 02:00:03;;;;;;;7.17;4.17;;;;;;;;;;5077708;28;20229;-77
2023/10/23 02:02:31;;;;;;;8.80;4.80;;;;;;;;;;5101913;27;20204;-77
2023/10/23 02:04:58;;;;;;;6.60;4.30;;;;;;;;;;5093611;27;20199;-77
2023/10/23 02:07:27;;;;;;;7.23;4.40;;;;;;;;;;5086260;28;20288;-76
2023/10/23 02:09:56;;;;;;;7.30;4.60;;;;;;;;;;5090773;28;20274;-76
2023/10/23 02:12:23;;;;;;;4.93;3.80;;;;;;;;;;5096005;27;20691;-77
2023/10/23 02:14:52;;;;;;;9.23;4.40;;;;;;;;;;5075797;27;20200;-77
2023/10/23 02:17:20;;;;;;;6.40;4.20;;;;;;;;;;5098047;27;20205;-76
2023/10/23 02:19:48;;;;;;;6.30;4.03;;;;;;;;;;5099370;27;23411;-77
2023/10/23 02:22:16;;;;;;;9.20;4.10;;;;;;;;;;5091661;27;20260;-79
2023/10/23 02:24:44;;;;;;;8.97;4.60;;;;;;;;;;5097817;28;20208;-78
2023/10/23 02:27:12;;;;;;;11.07;5.63;;;;;;;;;;5093058;27;20209;-75
2023/10/23 02:29:42;;;;;;;7.23;5.50;;;;;;;;;;5094512;28;20223;-75
2023/10/23 02:32:10;;;;;;;9.47;6.97;;;;;;;;;;5096760;27;20204;-76
2023/10/23 02:34:37;;;;;;;14.40;7.97;;;;;;;;;;5093780;28;20218;-78
2023/10/23 02:37:05;;;;;;;12.03;7.67;;;;;;;;;;5092942;28;20247;-77
2023/10/23 02:39:32;;;;;;;8.90;6.00;;;;;;;;;;5097306;28;20221;-76
2023/10/23 02:42:00;;;;;;;11.43;6.47;;;;;;;;;;5088173;28;20688;-75
2023/10/23 02:44:28;;;;;;;9.77;6.80;;;;;;;;;;5098238;27;20602;-75
2023/10/23 02:46:55;;;;;;;9.63;7.00;;;;;;;;;;5093429;27;20208;-76
2023/10/23 02:49:23;;;;;;;7.53;4.90;;;;;;;;;;5094223;28;20227;-76
2023/10/23 02:51:50;;;;;;;7.60;4.30;;;;;;;;;;5092538;27;20200;-75
2023/10/23 02:54:18;;;;;;;7.63;5.33;;;;;;;;;;5098135;28;20209;-73
2023/10/23 02:56:45;;;;;;;11.00;6.70;;;;;;;;;;5093575;28;20256;-73
2023/10/23 02:59:13;;;;;;;11.90;6.20;;;;;;;;;;5094002;28;20209;-74
2023/10/23 03:01:40;;;;;;;11.90;7.57;;;;;;;;;;5076399;28;20607;-74
2023/10/23 03:04:07;;;;;;;6.00;4.17;;;;;;;;;;5094000;28;20542;-73
2023/10/23 03:06:35;;;;;;;11.73;7.43;;;;;;;;;;5093599;28;20234;-75
2023/10/23 03:09:03;;;;;;;11.93;7.07;;;;;;;;;;5089087;28;20336;-77
2023/10/23 03:11:31;;;;;;;10.40;5.83;;;;;;;;;;5092232;28;20209;-75
2023/10/23 03:13:59;;;;;;;7.47;4.60;;;;;;;;;;5092949;28;20229;-75
2023/10/23 03:16:26;;;;;;;6.50;4.37;;;;;;;;;;5088891;28;20642;-76
2023/10/23 03:18:54;;;;;;;8.90;4.43;;;;;;;;;;5096162;28;20287;-76
2023/10/23 03:21:22;;;;;;;7.70;5.13;;;;;;;;;;5093525;28;20683;-77
2023/10/23 03:23:49;;;;;;;8.00;5.30;;;;;;;;;;5081140;27;20197;-77
2023/10/23 03:26:17;;;;;;;12.50;6.60;;;;;;;;;;5093699;27;20287;-76
2023/10/23 03:28:44;;;;;;;12.83;7.63;;;;;;;;;;5088924;28;20329;-74
2023/10/23 03:31:11;;;;;;;8.53;5.83;;;;;;;;;;5090611;28;20876;-75
2023/10/23 03:33:40;;;;;;;7.80;5.13;;;;;;;;;;5095360;28;20199;-75
2023/10/23 03:36:07;;;;;;;10.20;6.00;;;;;;;;;;5073828;27;20291;-76
2023/10/23 03:38:35;;;;;;;8.37;5.93;;;;;;;;;;5083399;28;20193;-75
2023/10/23 03:41:02;;;;;;;7.53;5.30;;;;;;;;;;5098280;27;20255;-74
2023/10/23 03:43:29;;;;;;;8.53;5.57;;;;;;;;;;5103070;27;20200;-76
2023/10/23 03:45:56;;;;;;;7.17;5.50;;;;;;;;;;5092319;28;20201;-75
2023/10/23 03:48:24;;;;;;;9.60;6.30;;;;;;;;;;5100288;28;20200;-77
2023/10/23 03:50:51;;;;;;;9.83;6.60;;;;;;;;;;5109821;27;20224;-75
2023/10/23 03:53:19;;;;;;;7.37;5.70;;;;;;;;;;5092481;28;20211;-76
2023/10/23 03:55:46;;;;;;;8.17;4.80;;;;;;;;;;5099046;27;20239;-74
2023/10/23 03:58:13;;;;;;;8.23;4.40;;;;;;;;;;5092867;28;20204;-76
2023/10/23 04:00:43;;;;;;;8.00;3.40;;;;;;;;;;5096469;28;20228;-75
2023/10/23 04:05:44;;;;;;;8.40;4.83;;;;;;;;;;5091035;28;20216;-76
2023/10/23 04:08:13;;;;;;;7.07;4.93;;;;;;;;;;5092942;27;20199;-77
2023/10/23 04:10:49;;;;;;;10.77;4.40;;;;;;;;;;5092900;28;20229;-78
2023/10/23 04:13:17;;;;;;;5.53;3.50;;;;;;;;;;5089207;28;20200;-76
2023/10/23 04:15:54;;;;;;;6.03;3.93;;;;;;;;;;5100845;27;20277;-76
2023/10/23 04:18:25;;;;;;;6.20;3.70;;;;;;;;;;5095695;28;20200;-76
2023/10/23 04:21:05;;;;;;;7.80;4.13;;;;;;;;;;5097746;27;20224;-76
2023/10/23 04:23:33;;;;;;;7.90;5.17;;;;;;;;;;5103361;27;20213;-73
2023/10/23 04:26:01;;;;;;;7.30;5.30;;;;;;;;;;5102265;27;20216;-76
2023/10/23 04:28:29;;;;;;;8.40;5.57;;;;;;;;;;5093539;28;20205;-74
2023/10/23 04:30:56;;;;;;;8.87;5.80;;;;;;;;;;5103134;27;20252;-75
2023/10/23 04:33:25;;;;;;;7.80;5.83;;;;;;;;;;5103025;27;20597;-75
2023/10/23 04:35:54;;;;;;;7.47;5.40;;;;;;;;;;5074549;28;20728;-73
2023/10/23 04:38:23;;;;;;;5.67;4.40;;;;;;;;;;5087738;28;20235;-71
2023/10/23 04:40:53;;;;;;;4.83;4.00;;;;;;;;;;5087967;28;20720;-74
2023/10/23 04:43:21;;;;;;;4.50;4.10;;;;;;;;;;5085957;28;20205;-75
2023/10/23 04:45:48;;;;;;;12.00;6.60;;;;;;;;;;5091936;28;20203;-75
2023/10/23 04:48:16;;;;;;;14.87;10.50;;;;;;;;;;5096684;27;20221;-74
2023/10/23 04:50:43;;;;;;;15.63;10.27;;;;;;;;;;5093023;28;20227;-77
2023/10/23 04:53:11;;;;;;;12.93;8.60;;;;;;;;;;5092517;28;20334;-73
2023/10/23 04:55:39;;;;;;;14.30;7.80;;;;;;;;;;5104418;28;20204;-75
2023/10/23 04:58:07;;;;;;;8.70;6.37;;;;;;;;;;5103423;27;20726;-75
2023/10/23 05:00:38;;;;;;;11.13;6.87;;;;;;;;;;5106500;28;20216;-73
2023/10/23 05:03:06;;;;;;;8.13;6.27;;;;;;;;;;5104857;28;20207;-75
2023/10/23 05:05:35;;;;;;;5.90;5.10;;;;;;;;;;5097782;28;20283;-75
2023/10/23 05:08:06;;;;;;;8.17;5.53;;;;;;;;;;5093722;28;20269;-75
2023/10/23 05:10:34;;;;;;;7.30;5.80;;;;;;;;;;5097077;28;20217;-74
2023/10/23 05:13:03;;;;;;;10.03;6.37;;;;;;;;;;5100114;28;20814;-76
2023/10/23 05:15:31;;;;;;;11.23;6.33;;;;;;;;;;5098648;28;20261;-74
2023/10/23 05:17:59;;;;;;;7.43;5.97;;;;;;;;;;5097836;28;20201;-75
2023/10/23 05:20:27;;;;;;;10.67;6.80;;;;;;;;;;5102556;28;20520;-74
2023/10/23 05:22:54;;;;;;;9.30;7.20;;;;;;;;;;5096215;28;20216;-75
2023/10/23 05:25:22;;;;;;;7.37;5.90;;;;;;;;;;5102310;28;20232;-73
2023/10/23 05:27:49;;;;;;;4.70;4.30;;;;;;;;;;5107734;28;20212;-74
2023/10/23 05:30:16;;;;;;;10.47;5.50;;;;;;;;;;5105202;28;20273;-75
2023/10/23 05:32:44;;;;;;;6.63;5.00;;;;;;;;;;5098889;28;20320;-74
2023/10/23 05:35:11;;;;;;;11.90;5.43;;;;;;;;;;5088837;28;20208;-74
2023/10/23 05:37:42;;;;;;;6.83;4.77;;;;;;;;;;5097246;28;20223;-74
2023/10/23 05:40:09;;;;;;;7.27;4.70;;;;;;;;;;5105033;28;20602;-74
2023/10/23 05:42:36;;;;;;;5.83;3.60;;;;;;;;;;5105988;28;20200;-73
2023/10/23 05:45:04;;;;;;;4.37;3.97;;;;;;;;;;5106039;28;20625;-73
2023/10/23 05:47:31;;;;;;;6.07;4.13;;;;;;;;;;5097102;28;20253;-73
2023/10/23 05:49:58;;;;;;;22.63;17.20;;;;;;;;;;5081789;28;20224;-74
2023/10/23 05:52:26;;;;;;;17.10;13.23;;;;;;;;;;5098491;28;20310;-74
2023/10/23 05:54:53;;;;;;;8.23;5.10;;;;;;;;;;5108517;28;20204;-73
2023/10/23 05:57:20;;;;;;;7.47;4.73;;;;;;;;;;5082515;28;20215;-73
2023/10/23 05:59:47;;;;;;;6.00;3.70;;;;;;;;;;5103622;28;20683;-74
2023/10/23 06:02:15;;;;;;;5.17;3.40;;;;;;;;;;5102189;28;20270;-74
2023/10/23 06:04:44;;;;;;;3.60;3.30;;;;;;;;;;5094925;28;20779;-75
2023/10/23 06:07:12;;;;;;;6.23;3.10;;;;;;;;;;5105481;27;20293;-73
2023/10/23 06:09:40;;;;;;;4.90;3.40;;;;;;;;;;5103362;27;20726;-73
2023/10/23 06:12:09;;;;;;;3.90;3.43;;;;;;;;;;5090820;28;20218;-74
2023/10/23 06:14:37;;;;;;;3.97;3.43;;;;;;;;;;5076369;28;20208;-74
2023/10/23 06:17:04;;;;;;;4.93;3.90;;;;;;;;;;5094175;28;20312;-75
2023/10/23 06:19:32;;;;;;;7.47;3.63;;;;;;;;;;5093461;28;20224;-74
2023/10/23 06:21:59;;;;;;;3.87;3.33;;;;;;;;;;5076234;28;20251;-74
2023/10/23 06:24:27;;;;;;;3.63;3.20;;;;;;;;;;5094575;28;20242;-73
2023/10/23 06:26:55;;;;;;;3.83;3.00;;;;;;;;;;5094534;28;20205;-75
2023/10/23 06:29:23;;;;;;;10.27;7.00;;;;;;;;;;5094317;28;20232;-74
2023/10/23 06:31:50;;;;;;;10.27;6.53;;;;;;;;;;5094276;28;20250;-74
2023/10/23 06:34:18;;;;;;;11.67;6.77;;;;;;;;;;5094039;28;20205;-75
2023/10/23 06:36:45;;;;;;;7.53;5.40;;;;;;;;;;5093498;28;20228;-74
2023/10/23 06:39:13;;;;;;;6.53;4.50;;;;;;;;;;5093883;28;20201;-75
2023/10/23 06:41:40;;;;;;;5.00;3.43;;;;;;;;;;5093759;28;20720;-75
2023/10/23 06:44:07;;;;;;;4.70;3.10;;;;;;;;;;5075891;28;20208;-75
2023/10/23 06:46:35;;;;;;;3.07;2.63;;;;;;;;;;5093980;28;20227;-75
2023/10/23 06:49:02;;;;;;;3.60;2.83;;;;;;;;;;5092377;28;20196;-76
2023/10/23 06:51:30;;;;;;;3.00;2.70;;;;;;;;;;5068600;28;21098;-77
2023/10/23 06:53:57;;;;;;;4.50;2.70;;;;;;;;;;5084173;28;20295;-75
2023/10/23 06:56:24;;;;;;;4.03;2.70;;;;;;;;;;5072114;28;20595;-78
2023/10/23 06:58:55;;;;;;;2.90;2.17;;;;;;;;;;5070377;28;20299;-78
2023/10/23 07:01:22;;;;;;;4.00;2.13;;;;;;;;;;5074405;28;20224;-76
2023/10/23 07:04:07;;;;;;;2.20;2.00;;;;;;;;;;5079287;28;20202;-78
2023/10/23 07:06:35;;;;;;;3.10;2.23;;;;;;;;;;5087874;27;20292;-77
2023/10/23 07:09:02;;;;;;;4.77;2.77;;;;;;;;;;5083251;28;20266;-77
2023/10/23 07:11:30;;;;;;;4.20;2.67;;;;;;;;;;5076101;28;20447;-77
2023/10/23 07:13:57;;;;;;;3.17;2.30;;;;;;;;;;5077764;28;20296;-77
2023/10/23 07:16:24;;;;;;;3.80;3.47;;;;;;;;;;5078134;28;20228;-77
2023/10/23 07:18:51;;;;;;;5.10;4.70;;;;;;;;;;5083013;27;20261;-78
2023/10/23 07:21:21;;;;;;;4.17;3.73;;;;;;;;;;5086451;27;20236;-76
2023/10/23 07:23:52;;;;;;;4.13;3.80;;;;;;;;;;5065900;27;20220;-77
2023/10/23 07:26:19;;;;;;;4.10;3.67;;;;;;;;;;5091039;28;20258;-76
2023/10/23 07:28:47;;;;;;;4.63;2.97;;;;;;;;;;5070206;28;20204;-77
2023/10/23 07:31:21;;;;;;;3.03;2.60;;;;;;;;;;5081087;28;20261;-75
2023/10/23 07:33:50;;;;;;;4.90;2.90;;;;;;;;;;5085487;28;20197;-74
2023/10/23 07:36:18;;;;;;;3.50;2.70;;;;;;;;;;5104520;27;20204;-75
2023/10/23 07:38:45;;;;;;;3.00;2.70;;;;;;;;;;5080994;28;20684;-76
2023/10/23 07:41:13;;;;;;;4.13;3.10;;;;;;;;;;5105440;27;20235;-75
2023/10/23 07:43:41;;;;;;;3.37;2.90;;;;;;;;;;5080474;28;20681;-76
2023/10/23 07:46:10;;;;;;;9.07;5.07;;;;;;;;;;5098155;28;20201;-76
2023/10/23 07:48:47;;;;;;;4.80;4.20;;;;;;;;;;5088263;28;20196;-76
2023/10/23 07:51:15;;;;;;;3.43;2.20;;;;;;;;;;5105077;27;20249;-74
2023/10/23 07:53:42;;;;;;;3.10;2.00;;;;;;;;;;5095041;28;20203;-75
2023/10/23 07:56:12;;;;;;;2.60;2.40;;;;;;;;;;5094744;28;20574;-74
2023/10/23 07:58:40;;;;;;;2.03;1.90;;;;;;;;;;5113191;28;20216;-76
2023/10/23 08:01:09;;;;;;;3.70;2.20;;;;;;;;;;5093768;28;20259;-74
2023/10/23 08:03:37;;;;;;;2.70;2.07;;;;;;;;;;5112745;28;20239;-75
2023/10/23 08:06:09;;;;;;;2.50;1.73;;;;;;;;;;5112672;28;20227;-75
2023/10/23 08:08:38;;;;;;;2.63;1.60;;;;;;;;;;5093939;28;20204;-75
2023/10/23 08:11:07;;;;;;;3.50;1.60;;;;;;;;;;5112923;28;20277;-74
2023/10/23 08:13:34;;;;;;;2.60;2.13;;;;;;;;;;5112782;28;20208;-75
2023/10/23 08:16:03;;;;;;;1.73;1.63;;;;;;;;;;5111989;28;20250;-75
2023/10/23 08:18:31;;;;;;;1.83;1.53;;;;;;;;;;5112017;28;20204;-76
2023/10/23 08:21:08;;;;;;;2.90;2.40;;;;;;;;;;5112705;28;20273;-76
2023/10/23 08:23:35;;;;;;;10.60;6.03;;;;;;;;;;5112624;28;20609;-76
2023/10/23 08:26:03;;;;;;;3.50;2.63;;;;;;;;;;5112349;28;20208;-76
2023/10/23 08:28:31;;;;;;;5.50;2.37;;;;;;;;;;5112403;28;20209;-76
2023/10/23 08:31:18;;;;;;;1.60;1.40;;;;;;;;;;5111978;28;20309;-74
2023/10/23 08:34:05;;;;;;;2.07;1.57;;;;;;;;;;5089262;28;20239;-74
2023/10/23 08:36:33;;;;;;;2.33;2.13;;;;;;;;;;5111921;28;20243;-74
2023/10/23 08:39:01;;;;;;;2.50;2.20;;;;;;;;;;5112021;28;20273;-76
2023/10/23 08:41:29;;;;;;;1.43;1.30;;;;;;;;;;5112164;28;20208;-76
2023/10/23 08:43:56;;;;;;;1.50;1.40;;;;;;;;;;5112115;28;20200;-74
2023/10/23 08:46:26;;;;;;;2.27;1.70;;;;;;;;;;5111933;28;20466;-77
2023/10/23 08:48:54;;;;;;;2.30;2.10;;;;;;;;;;5112023;28;20190;-75
2023/10/23 08:51:21;;;;;;;1.60;1.50;;;;;;;;;;5111657;28;20398;-75
2023/10/23 08:53:50;;;;;;;2.60;1.87;;;;;;;;;;5111944;28;20200;-74
2023/10/23 08:56:20;;;;;;;2.27;1.60;;;;;;;;;;5112178;28;20184;-74
2023/10/23 08:58:50;;;;;;;2.75;1.65;;;;;;;;;;5112097;28;20216;-76
2023/10/23 09:01:18;;;;;;;1.40;1.30;;;;;;;;;;5094226;28;20231;-77
2023/10/23 09:03:46;;;;;;;1.97;1.40;;;;;;;;;;5111904;28;20208;-76
2023/10/23 09:06:32;;;;;;;2.30;2.00;;;;;;;;;;5112339;28;20592;-75
2023/10/23 09:08:59;;;;;;;4.10;2.75;;;;;;;;;;5111893;28;20197;-76
2023/10/23 09:11:41;;;;;;;1.90;1.50;;;;;;;;;;5094068;28;20282;-74
2023/10/23 09:14:09;;;;;;;2.42;1.45;;;;;;;;;;5111802;28;20200;-75
2023/10/23 09:16:36;;;;;;;1.25;1.20;;;;;;;;;;5091351;28;21371;-76
2023/10/23 09:19:04;;;;;;;2.20;1.75;;;;;;;;;;5092294;28;20217;-78
2023/10/23 09:21:32;;;;;;;1.30;1.20;;;;;;;;;;5084662;28;20312;-77
2023/10/23 09:24:03;;;;;;;1.35;1.20;;;;;;;;;;5086951;28;20627;-78
2023/10/23 09:26:31;;;;;;;1.20;1.10;;;;;;;;;;5084156;28;20220;-77
2023/10/23 09:28:58;;;;;;;1.48;1.23;;;;;;;;;;5091609;28;20208;-76
2023/10/23 09:31:25;;;;;;;1.70;1.20;;;;;;;;;;5083039;28;20193;-76
2023/10/23 09:33:53;;;;;;;1.48;1.38;;;;;;;;;;5083893;28;20207;-78
2023/10/23 09:36:20;;;;;;;1.88;1.73;;;;;;;;;;5092906;28;20641;-78
2023/10/23 09:39:06;;;;;;;1.55;1.45;;;;;;;;;;5087154;28;20715;-77
2023/10/23 09:41:35;;;;;;;2.20;1.27;;;;;;;;;;5088916;27;20203;-78
2023/10/23 09:44:04;;;;;;;5.13;1.35;;;;;;;;;;5070995;28;20211;-77
2023/10/23 09:46:32;;;;;;;3.28;1.85;;;;;;;;;;5084757;27;20233;-78
2023/10/23 09:49:03;;;;;;;1.35;1.23;;;;;;;;;;5094013;28;20208;-77
2023/10/23 09:51:37;;;;;;;2.83;1.60;;;;;;;;;;5093468;28;20642;-78
2023/10/23 09:54:12;;;;;;;2.03;1.80;;;;;;;;;;5096386;28;20203;-77
2023/10/23 09:56:40;;;;;;;2.05;1.48;;;;;;;;;;5085565;27;20200;-79
2023/10/23 09:59:08;;;;;;;1.38;1.38;;;;;;;;;;5070949;28;20252;-79
2023/10/23 10:01:43;;;;;;;1.17;1.02;;;;;;;;;;5099933;28;20291;-77
2023/10/23 10:04:13;;;;;;;4.05;1.30;;;;;;;;;;5093378;27;20208;-76
2023/10/23 10:06:43;;;;;;;1.20;1.10;;;;;;;;;;5086199;27;20234;-80
2023/10/23 10:09:13;;;;;;;2.08;1.52;;;;;;;;;;5081559;28;20837;-80
2023/10/23 10:11:44;;;;;;;1.77;1.50;;;;;;;;;;5082736;27;20220;-77
2023/10/23 10:14:12;;;;;;;3.35;1.50;;;;;;;;;;5084421;28;20563;-77
2023/10/23 10:16:40;;;;;;;2.03;1.83;;;;;;;;;;5080697;27;20212;-77
2023/10/23 10:19:08;;;;;;;1.45;1.10;;;;;;;;;;5081303;27;20236;-78
2023/10/23 10:21:41;;;;;;;3.03;1.25;;;;;;;;;;5093310;27;20576;-79
2023/10/23 10:24:09;;;;;;;1.63;1.08;;;;;;;;;;5085595;28;20238;-79
2023/10/23 10:26:36;;;;;;;1.20;1.10;;;;;;;;;;5085389;27;20652;-80
2023/10/23 10:29:04;;;;;;;2.25;1.38;;;;;;;;;;5086347;27;20290;-77
2023/10/23 10:31:51;;;;;;;1.77;1.67;;;;;;;;;;5067682;28;20205;-77
2023/10/23 10:34:20;;;;;;;3.22;2.70;;;;;;;;;;5082314;27;20307;-79
2023/10/23 10:36:57;;;;;;;2.63;1.88;;;;;;;;;;5068953;27;20207;-78
2023/10/23 10:39:50;;;;;;;1.50;1.40;;;;;;;;;;5100220;27;20220;-79
2023/10/23 10:42:18;;;;;;;1.92;1.42;;;;;;;;;;5091454;27;20309;-80
2023/10/23 10:44:57;;;;;;;1.00;1.00;;;;;;;;;;5080552;27;20673;-79
2023/10/23 10:47:40;;;;;;;2.80;1.20;;;;;;;;;;5091210;28;20299;-76
2023/10/23 10:50:10;;;;;;;1.75;0.93;;;;;;;;;;5091927;28;20720;-78
2023/10/23 10:52:38;;;;;;;1.60;1.10;;;;;;;;;;5095804;27;20235;-76
2023/10/23 10:55:06;;;;;;;2.15;1.10;;;;;;;;;;5086385;27;20663;-77
2023/10/23 10:57:34;;;;;;;2.47;1.20;;;;;;;;;;5103200;28;20231;-78
2023/10/23 11:00:03;;;;;;;1.27;1.17;;;;;;;;;;5104963;27;20590;-78
2023/10/23 11:02:30;;;;;;;2.10;1.90;;;;;;;;;;5110351;28;20204;-77
2023/10/23 11:05:00;;;;;;;2.80;1.40;;;;;;;;;;5097869;28;20244;-75
2023/10/23 11:07:29;;;;;;;1.50;1.40;;;;;;;;;;5094144;28;20713;-77
2023/10/23 11:09:56;;;;;;;1.90;1.80;;;;;;;;;;5092524;28;20216;-76
2023/10/23 11:12:24;;;;;;;2.35;1.98;;;;;;;;;;5094084;28;20567;-77
2023/10/23 11:14:51;;;;;;;1.70;1.60;;;;;;;;;;5098189;28;20204;-77
2023/10/23 11:17:19;;;;;;;2.55;1.20;;;;;;;;;;5096047;27;21819;-77
2023/10/23 11:19:47;;;;;;;3.30;1.33;;;;;;;;;;5100670;28;20645;-75
2023/10/23 11:22:15;;;;;;;1.33;1.23;;;;;;;;;;5114133;28;20211;-75
2023/10/23 11:24:43;;;;;;;1.20;1.10;;;;;;;;;;5097150;28;20311;-79
2023/10/23 11:27:10;;;;;;;1.70;1.35;;;;;;;;;;5074521;28;20250;-78
2023/10/23 11:29:38;;;;;;;1.27;1.20;;;;;;;;;;5093050;27;20695;-78
2023/10/23 11:32:09;;;;;;;1.95;1.85;;;;;;;;;;5099369;28;20250;-77
2023/10/23 11:34:40;;;;;;;3.55;3.25;;;;;;;;;;5080707;28;20210;-78
2023/10/23 11:37:08;;;;;;;2.90;2.13;;;;;;;;;;5068362;28;20197;-77
2023/10/23 11:39:36;;;;;;;2.45;1.73;;;;;;;;;;5093534;27;20251;-77
2023/10/23 11:42:04;;;;;;;1.73;1.63;;;;;;;;;;5085994;27;20197;-80
2023/10/23 11:44:32;;;;;;;2.30;2.10;;;;;;;;;;5082491;27;20704;-79
2023/10/23 11:46:59;;;;;;;4.53;3.40;;;;;;;;;;5087963;27;20233;-80
2023/10/23 11:49:28;;;;;;;3.22;2.92;;;;;;;;;;5094254;27;20216;-79
2023/10/23 11:51:56;;;;;;;2.50;2.30;;;;;;;;;;5075132;28;20223;-78
2023/10/23 11:54:24;;;;;;;3.63;2.03;;;;;;;;;;5078221;28;20355;-77
2023/10/23 11:56:51;;;;;;;1.50;1.40;;;;;;;;;;5096302;27;20208;-78
2023/10/23 11:59:19;;;;;;;3.13;1.40;;;;;;;;;;5071722;28;20225;-78
2023/10/23 12:01:47;;;;;;;1.70;1.60;;;;;;;;;;5101011;27;20207;-78
2023/10/23 12:04:14;;;;;;;7.38;5.13;;;;;;;;;;5078934;28;20554;-80
2023/10/23 12:06:42;;;;;;;10.88;8.20;;;;;;;;;;5091903;27;20208;-78
2023/10/23 12:09:10;;;;;;;6.05;4.10;;;;;;;;;;5096865;28;20205;-79
2023/10/23 12:11:37;;;;;;;5.88;3.92;;;;;;;;;;5099792;28;20212;-78
2023/10/23 12:14:08;;;;;;;4.28;2.67;;;;;;;;;;5076816;28;20231;-77
2023/10/23 12:16:36;;;;;;;3.30;2.88;;;;;;;;;;5074674;28;20311;-79
2023/10/23 12:19:04;;;;;;;7.30;4.05;;;;;;;;;;5086975;28;20212;-78
2023/10/23 12:21:34;;;;;;;10.82;6.47;;;;;;;;;;5078125;28;20249;-76
2023/10/23 12:24:01;;;;;;;16.85;9.10;;;;;;;;;;5093192;28;20644;-78
2023/10/23 12:26:28;;;;;;;7.88;5.43;;;;;;;;;;5094386;27;20614;-78
2023/10/23 12:28:56;;;;;;;10.30;6.35;;;;;;;;;;5077123;28;20228;-77
2023/10/23 12:31:26;;;;;;;7.60;4.50;;;;;;;;;;5077143;28;20311;-78
2023/10/23 12:33:54;;;;;;;1.90;1.77;;;;;;;;;;5082026;28;20224;-80
2023/10/23 12:36:29;;;;;;;2.58;2.00;;;;;;;;;;5074841;28;20601;-80
2023/10/23 12:38:56;;;;;;;4.63;2.35;;;;;;;;;;5093496;28;20225;-79
2023/10/23 12:41:23;;;;;;;3.50;2.28;;;;;;;;;;5097339;28;20227;-78
2023/10/23 12:43:50;;;;;;;2.45;1.90;;;;;;;;;;5103184;27;20196;-76
2023/10/23 12:46:18;;;;;;;2.80;1.88;;;;;;;;;;5095381;28;20233;-77
2023/10/23 12:48:45;;;;;;;2.45;1.90;;;;;;;;;;5074727;28;20720;-78
2023/10/23 12:51:12;;;;;;;1.63;1.50;;;;;;;;;;5096578;28;20230;-79
2023/10/23 12:53:40;;;;;;;1.73;1.63;;;;;;;;;;5098814;27;20287;-79
2023/10/23 12:56:08;;;;;;;2.17;2.00;;;;;;;;;;5091846;28;20301;-76
2023/10/23 12:58:35;;;;;;;2.00;1.80;;;;;;;;;;5077011;28;20216;-77
2023/10/23 13:01:03;;;;;;;2.63;2.30;;;;;;;;;;5117722;27;20217;-81
2023/10/23 13:03:30;;;;;;;4.28;2.80;;;;;;;;;;5087948;28;20200;-80
2023/10/23 13:05:57;;;;;;;2.67;2.08;;;;;;;;;;5084176;28;20196;-80
2023/10/23 13:08:25;;;;;;;2.15;2.03;;;;;;;;;;5089660;28;22254;-79
2023/10/23 13:10:52;;;;;;;2.90;2.00;;;;;;;;;;5094332;28;20676;-79
2023/10/23 13:13:19;;;;;;;2.40;2.15;;;;;;;;;;5083944;28;20204;-78
2023/10/23 13:15:47;;;;;;;2.63;2.42;;;;;;;;;;5078566;28;20205;-80
2023/10/23 13:18:21;;;;;;;2.60;2.40;;;;;;;;;;5082499;28;20700;-80
2023/10/23 13:20:49;;;;;;;2.50;2.30;;;;;;;;;;5084594;28;20220;-81
2023/10/23 13:23:36;;;;;;;4.60;2.90;;;;;;;;;;5076776;28;20291;-79
2023/10/23 13:26:04;;;;;;;3.70;2.55;;;;;;;;;;5072672;27;20287;-78
2023/10/23 13:28:40;;;;;;;3.55;3.22;;;;;;;;;;5100800;28;20253;-79
2023/10/23 13:31:07;;;;;;;3.05;2.75;;;;;;;;;;5094000;28;20269;-79
2023/10/23 13:33:35;;;;;;;3.25;2.95;;;;;;;;;;5088309;27;20208;-79
2023/10/23 13:36:02;;;;;;;2.92;2.70;;;;;;;;;;5094460;27;21527;-79
2023/10/23 13:38:33;;;;;;;2.50;2.30;;;;;;;;;;5089083;28;20322;-80
2023/10/23 13:41:02;;;;;;;3.30;2.30;;;;;;;;;;5091332;27;20215;-79
2023/10/23 13:43:29;;;;;;;2.92;2.50;;;;;;;;;;5089180;27;20293;-79
2023/10/23 13:45:56;;;;;;;3.40;2.28;;;;;;;;;;5091412;28;20215;-77
2023/10/23 13:48:24;;;;;;;3.15;2.47;;;;;;;;;;5090188;28;20274;-78
2023/10/23 13:50:51;;;;;;;2.90;2.70;;;;;;;;;;5090099;27;20716;-75
2023/10/23 13:53:23;;;;;;;3.30;2.83;;;;;;;;;;5092788;27;20721;-76
2023/10/23 13:55:51;;;;;;;3.08;2.78;;;;;;;;;;5092939;27;20765;-76
2023/10/23 13:58:19;;;;;;;3.47;2.70;;;;;;;;;;5094831;27;20311;-76
2023/10/23 14:00:48;;;;;;;5.75;3.28;;;;;;;;;;5075629;28;20228;-79
2023/10/23 14:03:15;;;;;;;3.03;2.70;;;;;;;;;;5089110;27;20196;-79
2023/10/23 14:05:43;;;;;;;3.60;2.50;;;;;;;;;;5086571;28;20211;-78
2023/10/23 14:08:10;;;;;;;2.95;2.72;;;;;;;;;;5073928;28;20208;-78
2023/10/23 14:10:39;;;;;;;2.67;2.47;;;;;;;;;;5089801;27;20227;-79
2023/10/23 14:13:06;;;;;;;4.20;2.53;;;;;;;;;;5092528;27;20300;-79
2023/10/23 14:15:33;;;;;;;3.20;2.42;;;;;;;;;;5089809;27;20235;-80
2023/10/23 14:18:01;;;;;;;6.63;3.10;;;;;;;;;;5090315;27;21314;-80
2023/10/23 14:20:28;;;;;;;2.88;2.63;;;;;;;;;;5071367;28;20219;-78
2023/10/23 14:22:56;;;;;;;3.47;2.90;;;;;;;;;;5093369;27;20212;-79
2023/10/23 14:25:23;;;;;;;3.50;3.20;;;;;;;;;;5102660;28;20196;-79
2023/10/23 14:27:50;;;;;;;5.65;3.95;;;;;;;;;;5089385;27;20200;-78
2023/10/23 14:30:17;;;;;;;4.60;3.05;;;;;;;;;;5086943;28;20253;-77
2023/10/23 14:32:45;;;;;;;3.83;3.50;;;;;;;;;;5074189;27;20212;-79
2023/10/23 14:35:12;;;;;;;5.22;4.25;;;;;;;;;;5089089;27;20201;-81
2023/10/23 14:37:40;;;;;;;4.78;4.25;;;;;;;;;;5083667;28;20204;-78
2023/10/23 14:40:10;;;;;;;4.30;4.00;;;;;;;;;;5089349;27;20224;-78
2023/10/23 14:42:38;;;;;;;3.50;3.25;;;;;;;;;;5072815;27;20219;-78
2023/10/23 14:45:06;;;;;;;3.50;3.20;;;;;;;;;;5072115;27;20485;-81
2023/10/23 14:47:34;;;;;;;4.30;3.90;;;;;;;;;;5089411;27;20220;-78
2023/10/23 14:50:03;;;;;;;4.30;3.90;;;;;;;;;;5091348;28;20231;-77
2023/10/23 14:52:31;;;;;;;4.32;3.92;;;;;;;;;;5083367;28;20228;-78